Time;durP1;ratioP1;P1;durP2;ratioP2;P2;SDS_P1;SDS_P2;PMS_P1;PMS_P2;Temp;Humidity;BMP_temperature;BMP_pressure;BME280_temperature;BME280_humidity;BME280_pressure;Samples;Min_cycle;Max_cycle;Signal;HPM_P1;HPM_P2
2023/05/21 00:01:54;;;;;;;15.30;11.00;;;;;;;;;;6301018;28;20012;-81
2023/05/21 00:04:54;;;;;;;23.23;12.15;;;;;;;;;;6302109;28;20024;-82
2023/05/21 00:07:55;;;;;;;20.80;11.77;;;;;;;;;;6287582;28;20094;-82
2023/05/21 00:10:55;;;;;;;17.67;11.50;;;;;;;;;;6304696;28;20031;-82
2023/05/21 00:13:55;;;;;;;15.37;11.90;;;;;;;;;;6291877;28;20032;-82
2023/05/21 00:16:55;;;;;;;13.90;10.73;;;;;;;;;;6304124;28;20028;-82
2023/05/21 00:19:56;;;;;;;17.23;11.13;;;;;;;;;;6297632;28;20024;-82
2023/05/21 00:23:01;;;;;;;16.43;11.17;;;;;;;;;;6295616;28;20034;-79
2023/05/21 00:26:01;;;;;;;16.33;11.60;;;;;;;;;;6305247;28;20027;-79
2023/05/21 00:29:02;;;;;;;20.73;11.97;;;;;;;;;;6289976;28;20387;-79
2023/05/21 00:32:02;;;;;;;15.77;10.93;;;;;;;;;;6306607;28;20106;-79
2023/05/21 00:35:03;;;;;;;18.67;12.60;;;;;;;;;;6305356;28;20035;-79
2023/05/21 00:38:03;;;;;;;17.93;12.20;;;;;;;;;;6305455;28;20086;-79
2023/05/21 00:41:03;;;;;;;15.07;10.38;;;;;;;;;;6307579;28;20117;-78
2023/05/21 00:44:04;;;;;;;17.77;11.60;;;;;;;;;;6311271;28;20017;-79
2023/05/21 00:47:05;;;;;;;20.90;11.87;;;;;;;;;;6297526;28;20021;-79
2023/05/21 00:50:05;;;;;;;18.77;11.65;;;;;;;;;;6308277;28;20020;-79
2023/05/21 00:53:08;;;;;;;18.00;11.30;;;;;;;;;;6346031;28;20496;-78
2023/05/21 00:56:08;;;;;;;18.70;11.70;;;;;;;;;;6328992;28;20027;-78
2023/05/21 00:59:09;;;;;;;16.93;12.17;;;;;;;;;;6325972;28;20125;-78
2023/05/21 01:02:12;;;;;;;17.80;13.03;;;;;;;;;;6331483;28;20465;-79
2023/05/21 01:05:14;;;;;;;20.25;11.77;;;;;;;;;;6335610;28;20460;-79
2023/05/21 01:08:14;;;;;;;16.58;12.15;;;;;;;;;;6333935;28;20020;-78
2023/05/21 01:11:14;;;;;;;18.80;13.23;;;;;;;;;;6318257;28;20020;-79
2023/05/21 01:14:15;;;;;;;13.93;11.53;;;;;;;;;;6334816;28;20457;-79
2023/05/21 01:17:16;;;;;;;19.17;12.63;;;;;;;;;;6338101;28;20023;-79
2023/05/21 01:20:18;;;;;;;15.73;11.47;;;;;;;;;;6318747;28;20028;-81
2023/05/21 01:23:18;;;;;;;18.27;11.77;;;;;;;;;;6338796;28;20739;-81
2023/05/21 01:26:18;;;;;;;17.33;10.97;;;;;;;;;;6339697;28;20016;-81
2023/05/21 01:29:19;;;;;;;15.47;11.17;;;;;;;;;;6326829;28;20426;-81
2023/05/21 01:32:32;;;;;;;16.03;10.77;;;;;;;;;;6321992;28;20471;-78
2023/05/21 01:35:41;;;;;;;15.02;11.07;;;;;;;;;;6330495;28;20027;-78
2023/05/21 01:38:46;;;;;;;18.48;11.45;;;;;;;;;;6342136;28;20462;-79
2023/05/21 01:41:46;;;;;;;17.42;10.38;;;;;;;;;;6341083;28;20023;-78
2023/05/21 01:44:47;;;;;;;14.20;9.63;;;;;;;;;;6328724;28;20478;-79
2023/05/21 01:47:48;;;;;;;16.60;11.07;;;;;;;;;;6340629;28;20020;-79
2023/05/21 01:50:49;;;;;;;16.52;9.90;;;;;;;;;;6334363;28;20044;-79
2023/05/21 01:53:50;;;;;;;17.60;10.97;;;;;;;;;;6326156;28;20039;-78
2023/05/21 01:56:50;;;;;;;17.40;11.57;;;;;;;;;;6332315;28;20028;-80
2023/05/21 01:59:52;;;;;;;17.17;10.60;;;;;;;;;;6336859;28;20016;-80
2023/05/21 02:02:52;;;;;;;14.75;9.70;;;;;;;;;;6337683;28;20073;-78
2023/05/21 02:05:54;;;;;;;16.33;11.00;;;;;;;;;;6306786;28;20759;-78
2023/05/21 02:08:56;;;;;;;13.50;10.35;;;;;;;;;;6323159;28;20030;-78
2023/05/21 02:11:57;;;;;;;;;;;;;;;;;;6323329;28;20028;-78
2023/05/21 02:14:57;;;;;;;17.38;10.93;;;;;;;;;;6314590;28;19946;-78
2023/05/21 02:17:57;;;;;;;16.60;10.20;;;;;;;;;;6339214;28;20020;-78
2023/05/21 02:20:57;;;;;;;16.13;10.50;;;;;;;;;;6296368;28;20043;-78
2023/05/21 02:23:57;;;;;;;17.67;10.97;;;;;;;;;;6331179;28;20067;-78
2023/05/21 02:26:58;;;;;;;13.67;9.30;;;;;;;;;;6328592;28;20019;-78
2023/05/21 02:29:58;;;;;;;17.47;11.10;;;;;;;;;;6316745;28;20085;-81
2023/05/21 02:32:59;;;;;;;15.38;10.68;;;;;;;;;;6329780;28;20038;-78
2023/05/21 02:35:59;;;;;;;15.20;9.57;;;;;;;;;;6328156;28;20020;-78
2023/05/21 02:39:00;;;;;;;14.77;10.27;;;;;;;;;;6331336;28;20023;-78
2023/05/21 02:42:01;;;;;;;15.00;9.67;;;;;;;;;;6333862;28;20117;-79
2023/05/21 02:45:02;;;;;;;15.05;9.50;;;;;;;;;;6334193;28;20030;-79
2023/05/21 02:48:02;;;;;;;16.57;10.60;;;;;;;;;;6336422;28;20007;-79
2023/05/21 02:51:02;;;;;;;18.67;8.83;;;;;;;;;;6304157;28;20136;-78
2023/05/21 02:54:02;;;;;;;14.90;10.07;;;;;;;;;;6334200;28;20044;-78
2023/05/21 02:57:03;;;;;;;14.70;9.37;;;;;;;;;;6325268;28;20126;-78
2023/05/21 03:00:04;;;;;;;16.63;10.03;;;;;;;;;;6338875;28;20019;-78
2023/05/21 03:03:04;;;;;;;;;;;;;;;;;;6325740;28;20555;-78
2023/05/21 03:06:05;;;;;;;13.15;9.43;;;;;;;;;;6318919;28;19904;-78
2023/05/21 03:09:05;;;;;;;12.47;7.73;;;;;;;;;;6331756;28;20023;-80
2023/05/21 03:12:06;;;;;;;11.37;8.73;;;;;;;;;;6305452;28;20169;-79
2023/05/21 03:15:06;;;;;;;12.60;9.23;;;;;;;;;;6336346;28;20024;-79
2023/05/21 03:18:06;;;;;;;12.63;9.00;;;;;;;;;;6326211;28;20045;-78
2023/05/21 03:21:06;;;;;;;12.87;9.53;;;;;;;;;;6322974;28;20471;-79
2023/05/21 03:24:08;;;;;;;14.10;8.67;;;;;;;;;;6322226;28;20016;-79
2023/05/21 03:27:08;;;;;;;15.43;8.38;;;;;;;;;;6342007;28;20008;-79
2023/05/21 03:30:09;;;;;;;13.43;8.70;;;;;;;;;;6335465;28;20501;-78
2023/05/21 03:33:09;;;;;;;14.73;9.70;;;;;;;;;;6326342;28;20051;-79
2023/05/21 03:36:10;;;;;;;14.23;8.50;;;;;;;;;;6318851;28;20086;-79
2023/05/21 03:39:10;;;;;;;13.60;8.00;;;;;;;;;;6318318;28;20030;-79
2023/05/21 03:42:12;;;;;;;12.10;7.77;;;;;;;;;;6341170;28;20049;-79
2023/05/21 03:45:13;;;;;;;12.32;8.77;;;;;;;;;;6336189;28;20086;-79
2023/05/21 03:48:13;;;;;;;13.13;7.73;;;;;;;;;;6313044;28;20024;-79
2023/05/21 03:51:14;;;;;;;11.63;7.90;;;;;;;;;;6331710;28;20563;-81
2023/05/21 03:54:15;;;;;;;14.68;8.15;;;;;;;;;;6313205;28;20023;-82
2023/05/21 03:57:16;;;;;;;11.07;7.93;;;;;;;;;;6324001;28;20477;-82
2023/05/21 04:00:16;;;;;;;12.73;7.22;;;;;;;;;;6331299;28;20067;-81
2023/05/21 04:03:17;;;;;;;12.53;8.00;;;;;;;;;;6327166;28;20374;-82
2023/05/21 04:06:17;;;;;;;12.03;7.60;;;;;;;;;;6330442;28;20389;-82
2023/05/21 04:09:18;;;;;;;12.57;7.57;;;;;;;;;;6298979;28;20016;-82
2023/05/21 04:12:18;;;;;;;16.03;7.07;;;;;;;;;;6305871;28;20445;-81
2023/05/21 04:15:19;;;;;;;11.57;6.37;;;;;;;;;;6328809;28;20024;-82
2023/05/21 04:18:19;;;;;;;13.87;7.23;;;;;;;;;;6328965;28;20028;-82
2023/05/21 04:21:20;;;;;;;11.50;6.57;;;;;;;;;;6331649;28;20020;-81
2023/05/21 04:24:21;;;;;;;10.57;6.60;;;;;;;;;;6325251;28;20019;-82
2023/05/21 04:27:24;;;;;;;11.50;7.25;;;;;;;;;;6322920;28;20020;-82
2023/05/21 04:30:24;;;;;;;10.23;7.30;;;;;;;;;;6324642;28;20030;-81
2023/05/21 04:33:25;;;;;;;12.33;6.70;;;;;;;;;;6322061;28;20035;-82
2023/05/21 04:36:27;;;;;;;9.87;6.90;;;;;;;;;;6301388;28;20076;-82
2023/05/21 04:39:30;;;;;;;13.52;6.40;;;;;;;;;;6319064;28;20035;-81
2023/05/21 04:42:31;;;;;;;11.45;7.03;;;;;;;;;;6315704;28;20016;-81
2023/05/21 04:45:32;;;;;;;8.30;5.45;;;;;;;;;;6339626;28;20068;-81
2023/05/21 04:48:32;;;;;;;14.80;5.97;;;;;;;;;;6326155;28;20011;-82
2023/05/21 04:51:32;;;;;;;13.37;6.17;;;;;;;;;;6328714;28;20043;-78
2023/05/21 04:54:32;;;;;;;8.03;5.33;;;;;;;;;;6331576;28;20541;-79
2023/05/21 04:57:34;;;;;;;11.23;6.07;;;;;;;;;;6319835;28;20024;-79
2023/05/21 05:00:36;;;;;;;11.00;6.10;;;;;;;;;;6329467;28;20038;-79
2023/05/21 05:03:37;;;;;;;13.93;5.78;;;;;;;;;;6335873;28;20024;-79
2023/05/21 05:06:37;;;;;;;8.97;5.30;;;;;;;;;;6323455;28;20095;-79
2023/05/21 05:09:37;;;;;;;15.38;6.03;;;;;;;;;;6323275;28;20016;-79
2023/05/21 05:12:37;;;;;;;8.70;5.07;;;;;;;;;;6327488;28;20462;-79
2023/05/21 05:15:37;;;;;;;12.32;4.93;;;;;;;;;;6330541;28;20028;-79
2023/05/21 05:18:37;;;;;;;9.63;5.40;;;;;;;;;;6339693;28;20381;-79
2023/05/21 05:21:39;;;;;;;13.30;5.20;;;;;;;;;;6308325;28;20023;-80
2023/05/21 05:24:40;;;;;;;9.93;5.22;;;;;;;;;;6336832;28;20023;-78
2023/05/21 05:27:40;;;;;;;10.73;4.40;;;;;;;;;;6336950;28;20022;-80
2023/05/21 05:30:41;;;;;;;7.87;5.13;;;;;;;;;;6331982;28;20038;-79
2023/05/21 05:33:41;;;;;;;8.70;4.90;;;;;;;;;;6324052;28;20020;-80
2023/05/21 05:36:41;;;;;;;11.70;5.23;;;;;;;;;;6323455;28;20026;-78
2023/05/21 05:39:41;;;;;;;8.50;4.30;;;;;;;;;;6304360;28;20471;-78
2023/05/21 05:42:41;;;;;;;9.97;4.53;;;;;;;;;;6336475;28;20066;-78
2023/05/21 05:45:42;;;;;;;9.57;4.40;;;;;;;;;;6342819;28;20355;-78
2023/05/21 05:48:42;;;;;;;12.47;4.73;;;;;;;;;;6330529;28;20023;-77
2023/05/21 05:51:42;;;;;;;10.30;5.32;;;;;;;;;;6341163;28;20132;-78
2023/05/21 05:54:42;;;;;;;12.90;5.57;;;;;;;;;;6329611;27;20024;-78
2023/05/21 05:57:42;;;;;;;9.20;4.23;;;;;;;;;;6324731;28;20019;-78
2023/05/21 06:00:43;;;;;;;8.27;4.32;;;;;;;;;;6325989;28;20030;-77
2023/05/21 06:03:43;;;;;;;9.10;5.07;;;;;;;;;;6329744;28;20069;-78
2023/05/21 06:06:43;;;;;;;10.23;4.20;;;;;;;;;;6326909;28;20458;-78
2023/05/21 06:09:43;;;;;;;8.63;4.53;;;;;;;;;;6299532;28;20261;-78
2023/05/21 06:12:43;;;;;;;6.40;4.20;;;;;;;;;;6338288;28;20061;-83
2023/05/21 06:15:44;;;;;;;12.90;4.93;;;;;;;;;;6333625;28;20015;-81
2023/05/21 06:18:44;;;;;;;;;;;;;;;;;;6332767;28;20023;-82
2023/05/21 06:21:44;;;;;;;8.20;4.45;;;;;;;;;;6327730;28;19934;-82
2023/05/21 06:24:44;;;;;;;10.20;4.27;;;;;;;;;;6340459;28;20024;-82
2023/05/21 06:27:44;;;;;;;;;;;;;;;;;;6333444;28;20027;-81
2023/05/21 06:30:45;;;;;;;9.30;4.65;;;;;;;;;;6339270;27;19907;-81
2023/05/21 06:33:45;;;;;;;;;;;;;;;;;;6335816;28;20031;-80
2023/05/21 06:36:45;;;;;;;11.23;4.43;;;;;;;;;;6327434;28;19911;-82
2023/05/21 06:39:45;;;;;;;;;;;;;;;;;;6328239;28;20020;-81
2023/05/21 06:42:45;;;;;;;12.90;4.45;;;;;;;;;;6332656;28;19911;-82
2023/05/21 06:45:45;;;;;;;;;;;;;;;;;;6331443;27;20443;-82
2023/05/21 06:48:46;;;;;;;12.85;4.65;;;;;;;;;;6333167;28;20471;-81
2023/05/21 06:51:46;;;;;;;;;;;;;;;;;;6328963;28;20271;-81
2023/05/21 06:54:46;;;;;;;5.80;3.40;;;;;;;;;;6329347;28;19919;-81
2023/05/21 06:57:46;;;;;;;9.63;4.10;;;;;;;;;;6323776;28;20299;-82
2023/05/21 07:00:47;;;;;;;;;;;;;;;;;;6321303;28;20276;-81
2023/05/21 07:03:47;;;;;;;12.00;4.13;;;;;;;;;;6333091;28;19942;-81
2023/05/21 07:06:47;;;;;;;11.45;4.45;;;;;;;;;;6335823;28;20026;-81
2023/05/21 07:09:48;;;;;;;16.17;4.67;;;;;;;;;;6338677;28;20030;-82
2023/05/21 07:12:48;;;;;;;11.20;3.70;;;;;;;;;;6336191;28;20020;-82
2023/05/21 07:15:48;;;;;;;11.83;4.20;;;;;;;;;;6317902;28;20022;-82
2023/05/21 07:18:48;;;;;;;9.27;4.43;;;;;;;;;;6334459;28;20032;-82
2023/05/21 07:21:49;;;;;;;13.25;4.53;;;;;;;;;;6320545;28;20297;-82
2023/05/21 07:24:50;;;;;;;11.65;4.03;;;;;;;;;;6341825;28;20051;-82
2023/05/21 07:27:50;;;;;;;9.43;3.47;;;;;;;;;;6321836;28;20036;-82
2023/05/21 07:30:50;;;;;;;6.47;2.97;;;;;;;;;;6335065;28;20020;-82
2023/05/21 07:33:50;;;;;;;10.07;3.63;;;;;;;;;;6312559;28;20074;-82
2023/05/21 07:36:50;;;;;;;9.55;3.67;;;;;;;;;;6329014;28;20024;-82
2023/05/21 07:39:51;;;;;;;6.93;3.57;;;;;;;;;;6316133;28;20404;-83
2023/05/21 07:42:51;;;;;;;6.45;3.13;;;;;;;;;;6341988;28;20024;-82
2023/05/21 07:45:51;;;;;;;10.65;3.50;;;;;;;;;;6329221;28;20058;-82
2023/05/21 07:48:51;;;;;;;9.03;3.50;;;;;;;;;;6321881;28;20016;-82
2023/05/21 07:51:52;;;;;;;8.70;3.10;;;;;;;;;;6314627;28;20039;-82
2023/05/21 07:54:52;;;;;;;6.00;3.23;;;;;;;;;;6326427;28;20024;-82
2023/05/21 07:57:52;;;;;;;8.10;3.77;;;;;;;;;;6338043;28;20024;-81
2023/05/21 08:00:52;;;;;;;6.37;2.97;;;;;;;;;;6334302;28;20016;-82
2023/05/21 08:03:52;;;;;;;9.38;3.33;;;;;;;;;;6322227;28;20471;-82
2023/05/21 08:06:53;;;;;;;4.87;3.20;;;;;;;;;;6335483;28;20061;-82
2023/05/21 08:09:53;;;;;;;6.90;2.85;;;;;;;;;;6336241;28;20140;-82
2023/05/21 08:12:53;;;;;;;7.47;2.75;;;;;;;;;;6309984;28;20026;-82
2023/05/21 08:15:53;;;;;;;6.47;3.30;;;;;;;;;;6333790;28;20026;-82
2023/05/21 08:18:53;;;;;;;8.00;3.17;;;;;;;;;;6319595;28;20050;-82
2023/05/21 08:21:54;;;;;;;5.23;2.90;;;;;;;;;;6326893;28;20035;-79
2023/05/21 08:24:54;;;;;;;7.50;3.07;;;;;;;;;;6320612;28;20490;-79
2023/05/21 08:27:55;;;;;;;6.10;3.03;;;;;;;;;;6300444;28;20039;-79
2023/05/21 08:30:55;;;;;;;5.45;3.17;;;;;;;;;;6334912;28;20379;-82
2023/05/21 08:33:55;;;;;;;4.23;2.90;;;;;;;;;;6325991;28;20080;-82
2023/05/21 08:36:55;;;;;;;6.95;2.58;;;;;;;;;;6314784;28;20062;-82
2023/05/21 08:39:55;;;;;;;6.37;2.77;;;;;;;;;;6326499;28;20054;-83
2023/05/21 08:42:56;;;;;;;5.95;2.67;;;;;;;;;;6341307;28;20051;-83
2023/05/21 08:45:57;;;;;;;;;;;;;;;;;;6328145;28;20412;-82
2023/05/21 08:48:59;;;;;;;5.85;3.08;;;;;;;;;;6339543;28;19908;-82
2023/05/21 08:51:59;;;;;;;11.52;3.05;;;;;;;;;;6332911;28;20051;-82
2023/05/21 08:54:59;;;;;;;;;;;;;;;;;;6340065;28;20016;-82
2023/05/21 08:58:01;;;;;;;7.13;3.33;;;;;;;;;;6342064;27;20011;-82
2023/05/21 09:01:03;;;;;;;5.53;2.67;;;;;;;;;;6334151;28;20387;-82
2023/05/21 09:04:03;;;;;;;7.47;2.67;;;;;;;;;;6309202;28;20106;-82
2023/05/21 09:07:05;;;;;;;6.13;2.70;;;;;;;;;;6332815;28;20022;-82
2023/05/21 09:10:09;;;;;;;4.20;2.30;;;;;;;;;;6305085;28;20111;-82
2023/05/21 09:13:10;;;;;;;9.30;2.85;;;;;;;;;;6327132;28;20069;-83
2023/05/21 09:16:10;;;;;;;6.32;2.80;;;;;;;;;;6331334;28;20399;-82
2023/05/21 09:19:12;;;;;;;7.28;2.85;;;;;;;;;;6330207;28;20067;-83
2023/05/21 09:22:12;;;;;;;5.68;3.00;;;;;;;;;;6333658;28;20181;-82
2023/05/21 09:25:15;;;;;;;5.47;2.38;;;;;;;;;;6319922;28;20031;-82
2023/05/21 09:28:16;;;;;;;11.68;3.45;;;;;;;;;;6321009;28;20022;-82
2023/05/21 09:31:16;;;;;;;6.22;2.22;;;;;;;;;;6330726;28;20458;-82
2023/05/21 09:34:16;;;;;;;4.97;2.93;;;;;;;;;;6316378;28;20108;-82
2023/05/21 09:37:17;;;;;;;4.82;2.70;;;;;;;;;;6302278;28;20523;-82
2023/05/21 09:40:18;;;;;;;5.63;2.80;;;;;;;;;;6337127;28;20032;-80
2023/05/21 09:43:20;;;;;;;9.43;2.88;;;;;;;;;;6340092;27;20288;-80
2023/05/21 09:46:20;;;;;;;5.50;2.72;;;;;;;;;;6340687;28;20016;-79
2023/05/21 09:49:21;;;;;;;6.77;2.87;;;;;;;;;;6326727;28;20012;-79
2023/05/21 09:52:22;;;;;;;5.72;2.60;;;;;;;;;;6329268;28;20168;-79
2023/05/21 09:55:24;;;;;;;4.38;2.65;;;;;;;;;;6333463;28;20059;-79
2023/05/21 09:58:24;;;;;;;8.13;2.60;;;;;;;;;;6321591;28;20097;-79
2023/05/21 10:01:25;;;;;;;8.23;2.58;;;;;;;;;;6324915;28;20073;-79
2023/05/21 10:04:26;;;;;;;5.55;2.92;;;;;;;;;;6333715;28;20394;-79
2023/05/21 10:07:26;;;;;;;11.27;2.87;;;;;;;;;;6307247;28;20032;-79
2023/05/21 10:10:27;;;;;;;9.17;3.67;;;;;;;;;;6333310;28;20265;-79
2023/05/21 10:13:27;;;;;;;8.13;2.83;;;;;;;;;;6314928;28;20070;-79
2023/05/21 10:16:28;;;;;;;8.47;3.13;;;;;;;;;;6326449;28;20023;-79
2023/05/21 10:19:29;;;;;;;9.98;3.20;;;;;;;;;;6311609;28;20492;-79
2023/05/21 10:22:29;;;;;;;6.97;2.92;;;;;;;;;;6315166;27;20562;-79
2023/05/21 10:25:30;;;;;;;6.00;3.03;;;;;;;;;;6330401;27;20066;-80
2023/05/21 10:28:32;;;;;;;4.45;2.78;;;;;;;;;;6323777;28;20024;-79
2023/05/21 10:31:33;;;;;;;5.10;2.95;;;;;;;;;;6309932;28;20467;-80
2023/05/21 10:34:35;;;;;;;6.35;2.20;;;;;;;;;;6342181;28;20018;-79
2023/05/21 10:37:35;;;;;;;7.53;2.63;;;;;;;;;;6337361;28;20030;-80
2023/05/21 10:40:35;;;;;;;8.20;3.30;;;;;;;;;;6315761;28;20024;-82
2023/05/21 10:43:52;;;;;;;4.87;3.17;;;;;;;;;;6327435;28;20026;-83
2023/05/21 10:46:55;;;;;;;4.07;2.40;;;;;;;;;;6324873;28;20019;-83
2023/05/21 10:50:14;;;;;;;4.63;3.08;;;;;;;;;;6306993;28;20371;-83
2023/05/21 10:53:20;;;;;;;6.45;3.42;;;;;;;;;;6333958;28;20023;-83
2023/05/21 10:56:27;;;;;;;6.68;3.00;;;;;;;;;;6304039;28;20024;-83
2023/05/21 10:59:30;;;;;;;4.07;2.72;;;;;;;;;;6310793;28;20020;-83
2023/05/21 11:02:31;;;;;;;5.03;2.50;;;;;;;;;;6335189;28;20829;-83
2023/05/21 11:05:49;;;;;;;11.50;2.87;;;;;;;;;;6325324;28;20081;-83
2023/05/21 11:08:52;;;;;;;3.63;2.45;;;;;;;;;;6331299;27;20027;-83
2023/05/21 11:12:03;;;;;;;7.60;2.80;;;;;;;;;;6329328;27;20469;-83
2023/05/21 11:15:03;;;;;;;;;;;;;;;;;;6326611;28;20024;-82
2023/05/21 11:18:03;;;;;;;5.90;2.88;;;;;;;;;;6322473;28;20293;-83
2023/05/21 11:21:17;;;;;;;8.77;2.80;;;;;;;;;;6339734;27;20023;-83
2023/05/21 11:24:19;;;;;;;7.13;2.63;;;;;;;;;;6317822;28;20018;-83
2023/05/21 11:27:39;;;;;;;8.15;2.78;;;;;;;;;;6328468;27;20012;-83
2023/05/21 11:30:39;;;;;;;9.00;3.53;;;;;;;;;;6329550;27;20016;-83
2023/05/21 11:33:39;;;;;;;9.77;3.20;;;;;;;;;;6328250;28;20090;-83
2023/05/21 11:36:41;;;;;;;8.30;3.13;;;;;;;;;;6310539;28;20102;-83
2023/05/21 11:39:41;;;;;;;5.50;2.67;;;;;;;;;;6324900;28;20027;-82
2023/05/21 11:42:42;;;;;;;8.40;3.75;;;;;;;;;;6325485;28;20545;-82
2023/05/21 11:45:45;;;;;;;5.10;2.65;;;;;;;;;;6333032;28;20553;-82
2023/05/21 11:48:46;;;;;;;8.02;2.67;;;;;;;;;;6315009;28;20012;-82
2023/05/21 11:51:47;;;;;;;5.35;3.10;;;;;;;;;;6321802;28;20374;-83
2023/05/21 11:54:49;;;;;;;7.33;3.10;;;;;;;;;;6325544;28;20016;-82
2023/05/21 11:57:51;;;;;;;6.82;2.95;;;;;;;;;;6326781;28;20047;-82
2023/05/21 12:00:52;;;;;;;5.93;3.00;;;;;;;;;;6319913;28;20099;-82
2023/05/21 12:03:52;;;;;;;5.35;3.30;;;;;;;;;;6330637;28;20046;-82
2023/05/21 12:06:52;;;;;;;7.50;3.15;;;;;;;;;;6322542;28;20027;-82
2023/05/21 12:09:52;;;;;;;5.75;2.75;;;;;;;;;;6319249;28;20108;-82
2023/05/21 12:12:53;;;;;;;4.77;2.83;;;;;;;;;;6332227;28;20016;-82
2023/05/21 12:15:53;;;;;;;5.33;3.70;;;;;;;;;;6301813;28;20050;-83
2023/05/21 12:18:53;;;;;;;4.80;2.97;;;;;;;;;;6334642;28;20011;-83
2023/05/21 12:21:53;;;;;;;9.07;3.20;;;;;;;;;;6326413;28;20077;-82
2023/05/21 12:24:55;;;;;;;3.87;3.13;;;;;;;;;;6317842;28;20020;-82
2023/05/21 12:27:57;;;;;;;6.20;3.40;;;;;;;;;;6325905;28;20020;-83
2023/05/21 12:30:57;;;;;;;7.55;3.65;;;;;;;;;;6339972;28;20022;-82
2023/05/21 12:33:58;;;;;;;;;;;;;;;;;;6350115;28;20015;-83
2023/05/21 12:36:58;;;;;;;7.85;2.72;;;;;;;;;;6332096;28;20501;-83
2023/05/21 12:39:59;;;;;;;;;;;;;;;;;;6337715;28;20518;-83
2023/05/21 12:42:59;;;;;;;5.47;3.00;;;;;;;;;;6321322;28;19908;-83
2023/05/21 12:45:59;;;;;;;;;;;;;;;;;;6329304;28;20008;-82
2023/05/21 12:48:59;;;;;;;4.07;2.97;;;;;;;;;;6343008;28;20491;-83
2023/05/21 12:52:00;;;;;;;;;;;;;;;;;;6334405;28;20119;-83
2023/05/21 12:55:00;;;;;;;5.65;2.90;;;;;;;;;;6326297;27;19931;-83
2023/05/21 12:58:02;;;;;;;6.55;3.20;;;;;;;;;;6324630;28;20050;-83
2023/05/21 13:01:10;;;;;;;3.50;2.72;;;;;;;;;;6325253;28;20031;-83
2023/05/21 13:04:10;;;;;;;3.53;2.30;;;;;;;;;;6321516;28;20415;-83
2023/05/21 13:07:10;;;;;;;6.10;3.63;;;;;;;;;;6323712;28;20061;-83
2023/05/21 13:10:11;;;;;;;8.00;3.33;;;;;;;;;;6333544;28;20108;-83
2023/05/21 13:13:11;;;;;;;;;;;;;;;;;;6338490;27;20015;-84
2023/05/21 13:16:12;;;;;;;4.67;3.00;;;;;;;;;;6328124;27;21038;-84
2023/05/21 13:19:14;;;;;;;;;;;;;;;;;;6335012;28;20028;-84
2023/05/21 13:22:14;;;;;;;6.72;2.60;;;;;;;;;;6309025;28;19919;-84
2023/05/21 13:25:19;;;;;;;4.90;2.70;;;;;;;;;;6307528;28;20020;-83
2023/05/21 13:28:20;;;;;;;5.13;2.90;;;;;;;;;;6333028;28;20073;-84
2023/05/21 13:31:20;;;;;;;6.57;2.73;;;;;;;;;;6312465;28;20015;-83
2023/05/21 13:34:20;;;;;;;7.73;2.63;;;;;;;;;;6309000;27;20030;-83
2023/05/21 13:37:20;;;;;;;3.93;2.40;;;;;;;;;;6306561;28;20371;-84
2023/05/21 13:40:21;;;;;;;7.00;3.00;;;;;;;;;;6335893;28;20047;-83
2023/05/21 13:43:21;;;;;;;;;;;;;;;;;;6304846;28;20334;-84
2023/05/21 13:46:21;;;;;;;5.75;2.80;;;;;;;;;;6311606;28;19914;-84
2023/05/21 13:49:21;;;;;;;;;;;;;;;;;;6327248;28;20027;-84
2023/05/21 13:52:23;;;;;;;5.38;2.65;;;;;;;;;;6334352;28;19920;-84
2023/05/21 13:55:23;;;;;;;12.00;3.85;;;;;;;;;;6329297;28;20020;-84
2023/05/21 13:58:23;;;;;;;;;;;;;;;;;;6326765;28;20492;-83
2023/05/21 14:01:24;;;;;;;5.18;3.10;;;;;;;;;;6315641;28;20318;-84
2023/05/21 14:04:24;;;;;;;;;;;;;;;;;;6325600;28;20024;-82
2023/05/21 14:07:24;;;;;;;6.70;3.23;;;;;;;;;;6319033;28;19911;-84
2023/05/21 14:10:24;;;;;;;3.63;2.20;;;;;;;;;;6315322;28;20813;-86
2023/05/21 14:13:25;;;;;;;4.10;2.60;;;;;;;;;;6336780;28;20262;-84
2023/05/21 14:16:26;;;;;;;;;;;;;;;;;;6325615;28;20123;-84
2023/05/21 14:19:27;;;;;;;9.77;3.47;;;;;;;;;;6334624;27;20297;-84
2023/05/21 14:22:27;;;;;;;5.70;2.95;;;;;;;;;;6327647;27;20057;-80
2023/05/21 14:25:28;;;;;;;3.43;2.67;;;;;;;;;;6324629;28;20702;-80
2023/05/21 14:28:28;;;;;;;;;;;;;;;;;;6332536;28;20008;-80
2023/05/21 14:31:28;;;;;;;6.20;3.30;;;;;;;;;;6325495;28;19903;-80
2023/05/21 14:34:29;;;;;;;4.03;3.00;;;;;;;;;;6337024;28;20020;-79
2023/05/21 14:37:29;;;;;;;7.77;3.57;;;;;;;;;;6306602;28;20672;-79
2023/05/21 14:40:29;;;;;;;;;;;;;;;;;;6320708;28;20399;-79
2023/05/21 14:43:30;;;;;;;6.55;3.22;;;;;;;;;;6324560;28;19911;-79
2023/05/21 14:46:31;;;;;;;;;;;;;;;;;;6326787;28;20019;-79
2023/05/21 14:49:32;;;;;;;5.70;2.88;;;;;;;;;;6328955;28;19908;-80
2023/05/21 14:52:32;;;;;;;;;;;;;;;;;;6323926;28;20537;-79
2023/05/21 14:55:33;;;;;;;6.75;3.40;;;;;;;;;;6312788;28;20460;-80
2023/05/21 14:58:33;;;;;;;4.43;3.10;;;;;;;;;;6330875;28;20459;-81
2023/05/21 15:01:34;;;;;;;7.47;3.53;;;;;;;;;;6321926;28;20035;-81
2023/05/21 15:04:34;;;;;;;;;;;;;;;;;;6322168;28;20024;-80
2023/05/21 15:07:34;;;;;;;4.50;3.50;;;;;;;;;;6327022;28;20345;-81
2023/05/21 15:10:34;;;;;;;8.00;3.17;;;;;;;;;;6329793;28;20289;-81
2023/05/21 15:13:35;;;;;;;5.73;2.67;;;;;;;;;;6335229;28;20034;-81
2023/05/21 15:16:35;;;;;;;5.27;3.57;;;;;;;;;;6334280;28;20539;-81
2023/05/21 15:19:35;;;;;;;6.43;3.23;;;;;;;;;;6323826;28;20381;-81
2023/05/21 15:22:36;;;;;;;4.18;2.92;;;;;;;;;;6333014;28;20114;-88
2023/05/21 15:25:36;;;;;;;6.20;3.10;;;;;;;;;;6322048;28;20031;-86
2023/05/21 15:28:36;;;;;;;8.13;2.97;;;;;;;;;;6306817;28;20016;-87
2023/05/21 15:31:38;;;;;;;4.17;2.97;;;;;;;;;;6310417;28;20508;-87
2023/05/21 15:34:38;;;;;;;7.60;3.72;;;;;;;;;;6322206;28;20480;-87
2023/05/21 15:37:38;;;;;;;8.10;3.07;;;;;;;;;;6320234;28;20032;-87
2023/05/21 15:40:43;;;;;;;5.93;2.97;;;;;;;;;;6329909;28;20485;-87
2023/05/21 15:43:46;;;;;;;8.52;3.28;;;;;;;;;;6330471;28;20035;-86
2023/05/21 15:46:48;;;;;;;6.47;3.13;;;;;;;;;;6333663;28;20068;-84
2023/05/21 15:49:48;;;;;;;5.50;3.55;;;;;;;;;;6309186;28;20022;-86
2023/05/21 15:52:49;;;;;;;7.37;3.43;;;;;;;;;;6331906;28;20043;-86
2023/05/21 15:55:50;;;;;;;5.23;2.93;;;;;;;;;;6338644;28;20050;-86
2023/05/21 15:58:50;;;;;;;4.43;2.72;;;;;;;;;;6306890;28;20035;-86
2023/05/21 16:01:50;;;;;;;5.83;3.07;;;;;;;;;;6325823;28;20103;-86
2023/05/21 16:04:51;;;;;;;7.03;3.00;;;;;;;;;;6324383;28;20095;-87
2023/05/21 16:07:51;;;;;;;8.43;2.87;;;;;;;;;;6308477;28;20065;-88
2023/05/21 16:10:51;;;;;;;6.97;2.80;;;;;;;;;;6323649;28;20039;-87
2023/05/21 16:13:52;;;;;;;4.57;3.03;;;;;;;;;;6327914;28;20032;-87
2023/05/21 16:16:53;;;;;;;11.43;2.63;;;;;;;;;;6335224;28;20024;-88
2023/05/21 16:19:53;;;;;;;6.40;2.87;;;;;;;;;;6310213;28;20020;-86
2023/05/21 16:22:53;;;;;;;6.57;2.80;;;;;;;;;;6333351;28;20042;-87
2023/05/21 16:25:53;;;;;;;9.70;2.80;;;;;;;;;;6323492;28;20140;-87
2023/05/21 16:28:53;;;;;;;5.93;2.67;;;;;;;;;;6337637;28;20134;-87
2023/05/21 16:31:54;;;;;;;5.70;3.00;;;;;;;;;;6336791;28;20104;-86
2023/05/21 16:34:54;;;;;;;7.87;2.70;;;;;;;;;;6332247;28;20016;-88
2023/05/21 16:37:55;;;;;;;6.03;2.77;;;;;;;;;;6335804;28;20043;-88
2023/05/21 16:40:56;;;;;;;4.88;2.30;;;;;;;;;;6314525;28;20246;-87
2023/05/21 16:43:56;;;;;;;4.43;2.70;;;;;;;;;;6319790;28;20025;-88
2023/05/21 16:46:57;;;;;;;4.73;2.57;;;;;;;;;;6323564;28;20069;-87
2023/05/21 16:49:57;;;;;;;5.63;2.33;;;;;;;;;;6333089;28;20020;-88
2023/05/21 16:53:01;;;;;;;5.75;2.70;;;;;;;;;;6313641;28;20429;-88
2023/05/21 16:56:01;;;;;;;5.97;2.90;;;;;;;;;;6323331;28;20118;-87
2023/05/21 16:59:01;;;;;;;5.50;3.00;;;;;;;;;;6344530;28;20016;-87
2023/05/21 17:02:02;;;;;;;7.37;2.60;;;;;;;;;;6338550;28;20024;-88
2023/05/21 17:05:02;;;;;;;6.37;2.73;;;;;;;;;;6354123;28;20028;-88
2023/05/21 17:08:02;;;;;;;11.17;2.93;;;;;;;;;;6336346;28;20073;-87
2023/05/21 17:11:02;;;;;;;5.27;2.47;;;;;;;;;;6344763;28;20107;-88
2023/05/21 17:14:03;;;;;;;6.70;3.17;;;;;;;;;;6349342;28;20397;-90
2023/05/21 17:17:03;;;;;;;3.70;2.73;;;;;;;;;;6321873;28;20024;-88
2023/05/21 17:20:03;;;;;;;3.67;2.80;;;;;;;;;;6333301;28;20381;-88
2023/05/21 17:23:10;;;;;;;6.10;2.67;;;;;;;;;;6334767;28;20024;-88
2023/05/21 17:26:13;;;;;;;6.13;2.63;;;;;;;;;;6343519;28;20152;-88
2023/05/21 17:29:13;;;;;;;5.97;2.75;;;;;;;;;;6317187;28;20016;-89
2023/05/21 17:32:15;;;;;;;3.47;2.67;;;;;;;;;;6339002;28;20077;-88
2023/05/21 17:35:15;;;;;;;;;;;;;;;;;;6335227;28;20042;-88
2023/05/21 17:38:15;;;;;;;7.28;3.10;;;;;;;;;;6341026;28;19955;-88
2023/05/21 17:41:17;;;;;;;7.13;2.93;;;;;;;;;;6331728;28;20092;-80
2023/05/21 17:44:18;;;;;;;7.25;2.88;;;;;;;;;;6333437;28;20027;-80
2023/05/21 17:47:18;;;;;;;6.93;3.13;;;;;;;;;;6331736;28;20482;-81
2023/05/21 17:50:18;;;;;;;7.03;3.07;;;;;;;;;;6313558;28;20032;-78
2023/05/21 17:53:18;;;;;;;5.03;3.30;;;;;;;;;;6334425;28;20491;-80
2023/05/21 17:56:20;;;;;;;8.00;2.73;;;;;;;;;;6303289;28;20016;-79
2023/05/21 17:59:20;;;;;;;6.60;3.00;;;;;;;;;;6319043;28;20459;-79
2023/05/21 18:02:22;;;;;;;9.87;3.20;;;;;;;;;;6314035;28;20023;-79
2023/05/21 18:05:22;;;;;;;;;;;;;;;;;;6316322;28;20081;-80
2023/05/21 18:08:22;;;;;;;6.88;3.53;;;;;;;;;;6323604;28;19904;-80